Time;durP1;ratioP1;P1;durP2;ratioP2;P2;SDS_P1;SDS_P2;PMS_P1;PMS_P2;Temp;Humidity;BMP_temperature;BMP_pressure;BME280_temperature;BME280_humidity;BME280_pressure;Samples;Min_cycle;Max_cycle;Signal;HPM_P1;HPM_P2
2022/01/22 00:02:07;;;;;;;1.70;1.40;;;10.00;84.20;;;13.08;62.08;102673.84;5038665;28;20233;-61
2022/01/22 00:04:36;;;;;;;3.47;1.70;;;10.00;84.30;;;13.10;62.19;102673.72;5053146;28;20271;-61
2022/01/22 00:07:06;;;;;;;3.13;2.30;;;10.00;84.20;;;13.12;62.26;102672.56;5052531;28;20228;-62
2022/01/22 00:09:59;;;;;;;3.53;1.57;;;10.10;84.20;;;13.12;62.16;102662.00;5053372;28;20196;-58
2022/01/22 00:15:06;;;;;;;4.73;1.30;;;10.00;84.00;;;13.11;62.14;102670.94;5033641;28;20709;-62
2022/01/22 00:17:33;;;;;;;3.23;1.43;;;10.10;84.00;;;13.14;62.17;102675.94;5032110;28;20213;-61
2022/01/22 00:20:03;;;;;;;4.40;1.50;;;10.10;83.90;;;13.15;62.04;102674.94;5033404;28;20190;-62
2022/01/22 00:22:33;;;;;;;4.80;1.50;;;10.10;83.80;;;13.20;62.08;102680.63;5039983;28;20221;-60
2022/01/22 00:25:02;;;;;;;2.60;1.30;;;10.10;83.70;;;13.23;61.80;102669.78;5052965;28;20237;-62
2022/01/22 00:27:29;;;;;;;6.53;2.17;;;10.20;83.60;;;13.26;61.65;102674.78;5053268;28;20634;-60
2022/01/22 00:29:57;;;;;;;2.60;1.57;;;10.20;83.30;;;13.28;61.51;102661.41;5052906;28;20190;-58
2022/01/22 00:32:24;;;;;;;7.27;2.20;;;10.20;83.30;;;13.26;61.47;102658.94;5044086;28;20278;-60
2022/01/22 00:34:51;;;;;;;3.73;1.90;;;10.20;83.30;;;13.25;61.63;102657.25;5033097;28;20214;-57
2022/01/22 00:37:20;;;;;;;4.13;2.20;;;10.20;83.20;;;13.24;61.38;102660.03;5033564;28;20681;-60
2022/01/22 00:39:47;;;;;;;4.27;2.20;;;10.20;83.10;;;13.24;61.48;102660.03;5032542;28;20213;-60
2022/01/22 00:42:16;;;;;;;3.03;1.70;;;10.20;83.10;;;13.24;61.67;102660.03;5039442;28;20189;-62
2022/01/22 00:44:44;;;;;;;5.10;2.13;;;10.20;83.10;;;13.24;61.52;102666.13;5052785;28;20210;-62
2022/01/22 00:47:11;;;;;;;3.27;1.70;;;10.20;83.00;;;13.23;61.58;102664.50;5052196;28;20651;-60
2022/01/22 00:49:39;;;;;;;7.00;2.30;;;10.20;83.00;;;13.23;61.46;102659.22;5053211;28;20684;-61
2022/01/22 00:52:06;;;;;;;4.00;1.77;;;10.20;82.90;;;13.26;61.50;102658.94;5048006;28;20198;-62
2022/01/22 00:54:35;;;;;;;6.00;2.10;;;10.20;82.90;;;13.28;61.18;102659.59;5032841;28;20663;-60
2022/01/22 00:57:03;;;;;;;5.60;2.37;;;10.20;82.90;;;13.28;61.08;102659.59;5031918;28;20649;-60
2022/01/22 00:59:30;;;;;;;3.67;1.70;;;10.20;82.40;;;13.28;61.06;102661.41;5033122;28;20187;-61
2022/01/22 01:01:58;;;;;;;4.37;1.87;;;10.20;82.60;;;13.28;60.81;102656.13;5035193;28;20216;-60
2022/01/22 01:04:27;;;;;;;4.10;1.63;;;10.20;82.60;;;13.28;61.02;102661.41;5035071;28;20228;-61
2022/01/22 01:06:55;;;;;;;6.23;1.63;;;10.20;82.40;;;13.29;61.15;102673.63;5052951;28;20190;-60
2022/01/22 01:09:22;;;;;;;3.90;1.87;;;10.20;82.50;;;13.29;60.91;102663.91;5051633;28;20204;-61
2022/01/22 01:11:56;;;;;;;5.80;2.33;;;10.20;82.40;;;13.31;60.77;102663.78;5050408;28;20202;-62
2022/01/22 01:14:31;;;;;;;3.53;2.03;;;10.20;82.40;;;13.30;60.92;102665.59;5032688;28;20699;-61
2022/01/22 01:33:38;;;;;;;5.73;2.33;;;10.30;82.50;;;13.27;60.99;102670.31;5040515;28;20576;-62
2022/01/22 01:36:06;;;;;;;6.90;2.50;;;10.30;82.40;;;13.26;60.99;102673.94;5036288;28;20213;-61
2022/01/22 01:38:39;;;;;;;4.63;1.87;;;10.30;82.30;;;13.28;60.93;102678.13;5038071;28;20285;-62
2022/01/22 01:41:16;;;;;;;3.07;1.50;;;10.30;82.40;;;13.30;60.99;102680.59;5056422;28;20196;-62
2022/01/22 01:43:45;;;;;;;6.37;2.20;;;10.30;82.40;;;13.31;60.95;102683.09;5056294;28;20217;-62
2022/01/22 01:46:13;;;;;;;8.40;2.53;;;10.30;82.40;;;13.32;61.00;102687.44;5054994;28;20231;-60
2022/01/22 01:48:42;;;;;;;5.80;2.30;;;10.30;82.40;;;13.32;61.03;102678.66;5054283;28;20208;-61
2022/01/22 01:51:11;;;;;;;6.03;2.50;;;10.30;82.50;;;13.31;60.71;102677.81;5056096;28;20186;-62
2022/01/22 01:54:01;;;;;;;5.30;2.63;;;10.30;82.50;;;13.32;60.90;102679.50;5055814;28;20206;-60
2022/01/22 01:59:42;;;;;;;6.30;2.50;;;10.30;82.70;;;13.26;60.95;102695.94;4997350;28;20206;-59
2022/01/22 02:02:10;;;;;;;6.03;2.40;;;10.20;82.70;;;13.29;61.02;102695.63;5014103;28;20567;-59
2022/01/22 02:04:37;;;;;;;8.07;2.40;;;10.20;82.70;;;13.29;61.09;102678.94;5025466;28;20245;-61
2022/01/22 02:07:05;;;;;;;8.47;2.70;;;10.20;82.90;;;13.30;60.87;102686.75;5036114;28;20544;-59
2022/01/22 02:09:33;;;;;;;3.37;1.77;;;10.30;83.00;;;13.33;61.15;102690.91;5044657;28;20198;-59
2022/01/22 02:12:09;;;;;;;4.67;2.27;;;10.20;82.90;;;13.33;61.02;102696.19;5055604;28;20186;-57
2022/01/22 02:25:32;;;;;;;7.43;2.63;;;10.30;83.20;;;13.26;61.21;102727.69;5035007;28;20589;-60
2022/01/22 02:28:01;;;;;;;6.57;3.00;;;10.30;83.00;;;13.28;61.37;102725.72;5034706;28;20194;-61
2022/01/22 02:30:32;;;;;;;8.90;3.17;;;10.30;83.10;;;13.29;61.39;102731.81;5050449;28;20197;-61
2022/01/22 02:35:33;;;;;;;10.13;2.90;;;10.30;83.10;;;13.29;61.13;102726.53;5053437;28;20312;-63
2022/01/22 02:38:13;;;;;;;7.47;2.63;;;10.20;83.00;;;13.24;61.34;102731.44;5054758;28;20336;-62
2022/01/22 02:40:47;;;;;;;10.93;3.27;;;10.20;83.00;;;13.22;61.35;102726.28;5036522;28;20277;-61
2022/01/22 02:43:17;;;;;;;6.87;3.10;;;10.20;82.90;;;13.20;61.36;102725.59;5034428;28;20218;-62
2022/01/22 02:45:46;;;;;;;7.80;2.60;;;10.20;83.00;;;13.21;61.64;102719.34;5033799;28;20202;-63
2022/01/22 02:48:14;;;;;;;7.77;3.00;;;10.20;83.10;;;13.21;61.51;102723.78;5034669;28;20218;-61
2022/01/22 02:50:42;;;;;;;4.87;2.27;;;10.20;83.10;;;13.21;61.44;102727.28;5052871;28;20193;-62
2022/01/22 02:53:13;;;;;;;6.13;2.57;;;10.20;83.10;;;13.23;61.36;102721.81;5054090;28;20234;-61
2022/01/22 02:55:41;;;;;;;6.87;2.67;;;10.20;83.10;;;13.23;61.55;102724.47;5054601;28;20214;-61
2022/01/22 02:58:09;;;;;;;8.77;2.70;;;10.20;83.00;;;13.23;61.41;102722.66;5054559;28;20268;-61
2022/01/22 03:00:36;;;;;;;7.17;2.43;;;10.20;83.00;;;13.22;61.40;102726.28;5037010;28;20194;-60
2022/01/22 03:03:05;;;;;;;10.73;3.53;;;10.20;82.90;;;13.22;61.33;102723.63;5033940;28;20214;-62
2022/01/22 03:05:32;;;;;;;3.67;2.03;;;10.20;83.00;;;13.23;61.46;102727.97;5034551;28;20194;-61
2022/01/22 03:08:05;;;;;;;9.90;2.87;;;10.20;83.00;;;13.23;61.47;102722.66;5034464;28;20190;-62
2022/01/22 03:10:34;;;;;;;5.33;2.10;;;10.20;83.00;;;13.24;61.36;102723.50;5050410;28;20305;-61
2022/01/22 03:13:37;;;;;;;9.00;2.50;;;10.20;83.00;;;13.23;61.50;102733.25;5054241;28;20217;-61
2022/01/22 03:16:07;;;;;;;4.83;2.00;;;10.20;83.10;;;13.21;61.55;102729.91;5052794;28;20773;-61
2022/01/22 03:21:11;;;;;;;5.20;1.70;;;10.20;83.20;;;13.22;61.62;102736.84;5034575;28;20660;-61
2022/01/22 03:29:17;;;;;;;4.53;1.57;;;10.20;83.20;;;13.18;61.61;102739.94;5038650;28;20277;-62
2022/01/22 03:31:45;;;;;;;4.87;2.40;;;10.10;83.10;;;13.20;61.58;102744.09;5054974;28;20220;-62
2022/01/22 03:34:14;;;;;;;3.20;1.57;;;10.20;83.20;;;13.21;61.61;102759.00;5055253;28;20213;-61
2022/01/22 03:36:41;;;;;;;2.93;1.20;;;10.20;83.30;;;13.23;61.56;102754.41;5053804;28;20632;-61
2022/01/22 03:39:09;;;;;;;3.53;1.10;;;10.20;83.10;;;13.23;61.42;102759.69;5050177;28;20201;-62
2022/01/22 03:41:41;;;;;;;2.70;1.30;;;10.20;83.20;;;13.25;61.29;102768.31;5034648;28;20190;-62
2022/01/22 03:44:08;;;;;;;1.37;1.20;;;10.20;83.10;;;13.28;61.40;102767.19;5032286;28;20654;-60
2022/01/22 03:46:38;;;;;;;1.83;1.10;;;10.20;83.00;;;13.28;61.38;102760.09;5033461;28;20197;-62
2022/01/22 03:49:05;;;;;;;2.70;0.90;;;10.20;82.80;;;13.29;61.20;102753.81;5037736;28;20624;-61
2022/01/22 03:51:32;;;;;;;1.30;0.70;;;10.20;82.70;;;13.28;61.15;102761.91;5053724;28;20312;-62
2022/01/22 03:53:59;;;;;;;1.53;0.93;;;10.20;82.70;;;13.27;61.10;102761.06;5052788;28;20216;-61
2022/01/22 03:56:27;;;;;;;0.97;0.87;;;10.20;82.70;;;13.27;61.24;102761.06;5053347;28;20213;-62
2022/01/22 03:58:56;;;;;;;1.63;1.00;;;10.20;82.80;;;13.29;61.10;102764.41;5052636;28;20197;-60
2022/01/22 04:09:05;;;;;;;4.30;1.57;;;10.20;82.80;;;13.28;61.05;102773.31;5051865;28;20198;-62
2022/01/22 04:11:37;;;;;;;2.40;1.63;;;10.20;82.80;;;13.28;60.88;102778.63;5053164;28;20224;-63
2022/01/22 04:14:12;;;;;;;3.53;2.07;;;10.20;82.80;;;13.29;60.93;102782.06;5052874;28;20213;-61
2022/01/22 04:16:58;;;;;;;2.87;2.23;;;10.20;82.80;;;13.29;60.80;102779.44;5052991;28;20228;-62
2022/01/22 04:25:01;;;;;;;5.30;2.90;;;10.20;82.50;;;13.20;60.93;102797.00;5032997;28;20214;-62
2022/01/22 04:27:28;;;;;;;2.47;1.80;;;10.20;82.40;;;13.22;60.98;102796.84;5033077;28;20217;-61
2022/01/22 04:29:59;;;;;;;2.20;1.77;;;10.10;82.30;;;13.24;60.81;102803.66;5042444;28;20570;-60
2022/01/22 04:32:30;;;;;;;3.00;2.00;;;10.10;82.40;;;13.26;60.84;102801.72;5051412;28;20647;-61
2022/01/22 04:34:58;;;;;;;3.00;1.87;;;10.20;82.40;;;13.25;60.69;102800.03;5052759;28;20303;-63
2022/01/22 04:37:26;;;;;;;2.37;1.73;;;10.20;82.30;;;13.23;60.71;102796.72;5052639;28;20700;-62
2022/01/22 04:39:54;;;;;;;2.37;1.63;;;10.20;82.20;;;13.20;60.75;102802.28;5043542;28;20194;-63
2022/01/22 04:42:22;;;;;;;4.67;1.10;;;10.20;82.20;;;13.19;60.75;102795.31;5032543;28;20193;-64
2022/01/22 04:44:58;;;;;;;1.50;1.27;;;10.10;82.00;;;13.18;60.83;102793.66;5032677;28;20770;-62
2022/01/22 04:47:47;;;;;;;2.33;1.23;;;10.10;82.00;;;13.19;60.65;102792.66;5031977;28;20714;-62
2022/01/22 04:55:39;;;;;;;1.00;0.80;;;10.10;82.10;;;13.12;61.16;102799.50;5052783;28;20273;-61
2022/01/22 04:58:08;;;;;;;1.27;0.93;;;10.10;81.80;;;13.09;60.85;102802.44;5056269;28;20217;-62
2022/01/22 05:00:38;;;;;;;1.20;1.10;;;10.10;81.90;;;13.08;60.88;102808.69;5042232;28;20281;-63
2022/01/22 05:03:07;;;;;;;2.13;0.83;;;10.10;81.90;;;13.08;60.75;102803.41;5036284;28;20221;-62
2022/01/22 05:05:35;;;;;;;2.23;1.00;;;10.10;81.90;;;13.10;60.66;102804.09;5036146;28;20217;-62
2022/01/22 05:08:03;;;;;;;3.43;1.50;;;10.00;81.90;;;13.12;60.73;102796.03;5035073;28;20601;-62
2022/01/22 05:10:31;;;;;;;1.30;0.90;;;10.00;81.90;;;13.15;60.63;102801.03;5048343;28;20197;-60
2022/01/22 05:12:58;;;;;;;1.90;0.73;;;10.00;81.90;;;13.15;60.43;102798.38;5056186;28;20194;-62
2022/01/22 05:15:25;;;;;;;1.10;0.67;;;10.00;81.90;;;13.15;60.43;102801.84;5056269;28;20193;-61
2022/01/22 05:17:53;;;;;;;1.43;0.90;;;10.00;81.90;;;13.15;60.39;102804.50;5055034;28;20213;-62
2022/01/22 05:20:27;;;;;;;0.97;0.90;;;10.00;81.70;;;13.12;60.51;102798.69;5044485;28;20199;-62
2022/01/22 05:26:13;;;;;;;1.97;0.80;;;10.00;82.00;;;13.08;60.55;102800.75;5035843;28;20217;-62
2022/01/22 05:38:25;;;;;;;2.07;1.40;;;10.00;81.80;;;13.08;60.45;102810.47;5055935;28;20216;-61
2022/01/22 05:40:53;;;;;;;3.57;1.53;;;10.00;81.80;;;13.08;60.57;102813.13;5039059;28;20294;-62
2022/01/22 05:43:20;;;;;;;1.90;1.10;;;10.00;81.80;;;13.08;60.50;102818.41;5035288;28;20726;-62
2022/01/22 05:45:48;;;;;;;3.67;1.27;;;10.00;81.70;;;13.06;60.36;102821.22;5035691;28;20240;-60
2022/01/22 05:48:15;;;;;;;3.23;1.20;;;10.00;81.70;;;13.06;60.70;102826.50;5034601;28;20195;-58
2022/01/22 06:01:22;;;;;;;5.50;1.90;;;10.00;81.60;;;13.06;60.57;102849.44;5035711;28;20198;-62
2022/01/22 06:03:49;;;;;;;7.67;1.90;;;10.00;81.60;;;13.07;60.34;102845.84;5033763;28;20234;-63
2022/01/22 06:06:19;;;;;;;5.90;1.70;;;10.00;81.60;;;13.05;60.35;102845.94;5033955;28;20198;-62
2022/01/22 06:08:53;;;;;;;4.97;2.80;;;10.00;81.70;;;13.04;60.71;102846.94;5034176;28;20194;-62
2022/01/22 06:11:26;;;;;;;8.03;2.17;;;10.00;81.60;;;13.04;60.31;102846.09;5036083;28;20561;-62
2022/01/22 06:13:54;;;;;;;3.80;2.10;;;10.00;81.70;;;13.05;60.34;102851.22;5054998;28;20213;-61
2022/01/22 06:16:23;;;;;;;4.83;1.63;;;10.00;81.70;;;13.07;60.33;102853.78;5055034;28;20197;-62
2022/01/22 06:18:51;;;;;;;5.17;1.80;;;10.00;81.80;;;13.06;60.22;102855.59;5054982;28;20195;-62
2022/01/22 06:21:19;;;;;;;6.80;2.67;;;10.00;81.90;;;13.07;60.31;102854.63;5035544;28;20206;-61
2022/01/22 06:23:47;;;;;;;4.67;2.80;;;10.00;81.90;;;13.08;60.41;102853.63;5034805;28;20241;-63
2022/01/22 06:26:15;;;;;;;7.50;2.50;;;10.00;81.90;;;13.10;60.44;102854.31;5034921;28;20701;-63
2022/01/22 06:28:42;;;;;;;7.10;2.80;;;10.00;81.90;;;13.12;60.21;102856.84;5033827;28;20190;-62
2022/01/22 06:31:11;;;;;;;5.07;2.53;;;10.00;81.90;;;13.12;60.53;102852.38;5051447;28;20198;-63
2022/01/22 06:33:38;;;;;;;5.90;3.10;;;10.00;81.90;;;13.13;60.08;102864.63;5053765;28;20210;-63
2022/01/22 06:36:06;;;;;;;5.60;2.70;;;10.00;81.90;;;13.11;60.76;102856.00;5053996;28;20220;-60
2022/01/22 06:38:34;;;;;;;7.87;2.60;;;10.00;81.90;;;13.11;60.61;102861.28;5054674;28;20297;-60
2022/01/22 06:43:48;;;;;;;7.67;2.80;;;10.00;82.10;;;13.09;60.63;102868.53;5034573;28;20293;-60
2022/01/22 06:46:16;;;;;;;7.03;2.73;;;10.00;81.90;;;13.09;60.55;102879.09;5035083;28;20249;-62
2022/01/22 06:48:43;;;;;;;5.40;3.03;;;10.10;81.90;;;13.09;60.36;102862.41;5034879;28;20672;-60
2022/01/22 06:51:11;;;;;;;7.13;2.67;;;10.00;81.80;;;13.08;60.48;102872.13;5050990;28;20229;-62
2022/01/22 06:53:40;;;;;;;3.80;2.70;;;10.00;81.90;;;13.06;60.60;102871.44;5054222;28;20217;-60
2022/01/22 06:56:18;;;;;;;5.43;2.40;;;10.00;81.90;;;13.05;60.67;102871.56;5054741;28;20200;-61
2022/01/22 06:58:46;;;;;;;9.30;2.97;;;10.00;81.80;;;13.04;60.68;102873.34;5053438;28;20210;-61
2022/01/22 07:01:14;;;;;;;6.30;3.03;;;10.00;81.60;;;13.04;60.49;102876.00;5036710;28;20201;-61
2022/01/22 07:03:42;;;;;;;6.13;2.60;;;10.00;81.40;;;12.99;60.46;102875.56;5033865;28;20662;-61
2022/01/22 07:06:09;;;;;;;5.37;2.40;;;10.00;81.40;;;12.99;60.64;102882.66;5034554;28;20190;-61
2022/01/22 07:08:36;;;;;;;5.73;2.63;;;10.00;81.40;;;13.00;60.61;102881.72;5034338;28;20285;-60
2022/01/22 07:11:06;;;;;;;5.23;2.03;;;10.00;81.30;;;13.02;60.43;102888.53;5048962;28;20220;-62
2022/01/22 07:13:34;;;;;;;3.83;2.17;;;10.00;81.10;;;13.05;60.25;102888.22;5054024;28;20209;-61
2022/01/22 07:16:01;;;;;;;6.13;2.70;;;10.00;81.10;;;13.07;60.30;102891.63;5052956;28;20204;-60
2022/01/22 07:18:29;;;;;;;5.10;2.43;;;10.00;80.80;;;13.09;60.19;102894.13;5054053;28;20213;-62
2022/01/22 07:20:57;;;;;;;7.73;2.80;;;10.00;81.00;;;13.11;60.32;102882.44;5038662;28;20198;-62
2022/01/22 07:26:07;;;;;;;5.73;3.00;;;10.00;80.70;;;13.18;59.88;102894.13;5034001;28;20220;-62
2022/01/22 07:28:35;;;;;;;5.57;2.90;;;10.10;80.70;;;13.21;59.70;102896.50;5032877;28;20195;-62
2022/01/22 07:31:03;;;;;;;6.10;3.17;;;10.10;80.60;;;13.22;59.61;102906.09;5047857;28;20588;-62
2022/01/22 07:33:31;;;;;;;10.47;2.73;;;10.10;80.40;;;13.22;59.58;102906.09;5052429;28;20228;-61
2022/01/22 07:35:58;;;;;;;6.70;2.83;;;10.10;80.40;;;13.23;59.61;102909.59;5035791;28;20638;-63
2022/01/22 07:38:26;;;;;;;4.13;2.70;;;10.10;80.30;;;13.22;59.58;102905.25;5053541;28;20214;-61
2022/01/22 07:40:53;;;;;;;7.60;3.00;;;10.10;80.30;;;13.24;59.48;102898.84;5040734;28;20198;-62
2022/01/22 07:43:22;;;;;;;8.40;3.40;;;10.10;80.30;;;13.26;59.34;102902.22;5033762;28;20238;-63
2022/01/22 07:45:50;;;;;;;5.80;2.90;;;10.10;80.20;;;13.28;59.29;102905.56;5033600;28;20197;-62
2022/01/22 07:48:17;;;;;;;6.83;2.53;;;10.10;80.20;;;13.30;59.51;102903.59;5033390;28;20225;-62
2022/01/22 07:50:44;;;;;;;5.60;2.87;;;10.10;80.30;;;13.34;59.33;102907.63;5044266;28;20190;-61
2022/01/22 07:53:11;;;;;;;3.80;2.20;;;10.20;80.40;;;13.35;59.26;102913.78;5052700;28;20220;-61
2022/01/22 07:55:39;;;;;;;3.87;2.43;;;10.20;80.20;;;13.33;58.98;102910.44;5053041;28;20193;-61
2022/01/22 07:58:06;;;;;;;4.83;2.90;;;10.20;80.00;;;13.30;59.00;102914.19;5053000;28;20243;-62
2022/01/22 08:00:35;;;;;;;5.07;3.07;;;10.20;79.80;;;13.30;59.09;102913.34;5042456;28;20222;-62
2022/01/22 08:03:03;;;;;;;7.60;2.97;;;10.20;79.80;;;13.31;59.11;102922.97;5031983;28;20275;-62
2022/01/22 08:05:30;;;;;;;7.67;3.33;;;10.20;79.70;;;13.31;59.14;102915.84;5033418;28;20466;-62
2022/01/22 08:07:58;;;;;;;6.80;3.00;;;10.20;79.60;;;13.35;59.09;102911.97;5032178;28;20557;-60
2022/01/22 08:10:25;;;;;;;5.23;3.47;;;10.20;79.80;;;13.37;58.94;102920.59;5033294;28;20273;-63
2022/01/22 08:12:53;;;;;;;7.87;3.00;;;10.20;79.70;;;13.39;58.89;102918.63;5032644;28;20269;-62
2022/01/22 08:15:21;;;;;;;7.33;3.47;;;10.20;79.80;;;13.40;58.89;102925.63;5032110;28;20300;-63
2022/01/22 08:17:50;;;;;;;10.60;3.63;;;10.20;79.90;;;13.39;58.73;102929.22;5032738;28;20210;-63
2022/01/22 08:20:20;;;;;;;8.77;3.43;;;10.20;80.00;;;13.39;58.79;102928.38;5039552;28;20560;-62
2022/01/22 08:22:48;;;;;;;7.47;3.20;;;10.20;80.00;;;13.37;59.13;102931.19;5052239;28;20201;-60
2022/01/22 08:25:15;;;;;;;6.20;3.33;;;10.20;80.20;;;13.37;59.03;102936.47;5052810;28;20698;-61
2022/01/22 08:30:29;;;;;;;4.90;2.73;;;10.20;80.40;;;13.37;59.17;102941.75;5044553;28;20597;-62
2022/01/22 08:33:31;;;;;;;7.47;3.63;;;10.20;80.40;;;13.39;58.95;102933.66;5036736;28;20191;-61
2022/01/22 08:35:55;;;;;;;7.13;3.83;;;10.20;80.50;;;13.39;59.07;102933.66;5037205;28;20194;-62
2022/01/22 08:38:26;;;;;;;6.67;3.73;;;10.20;80.80;;;13.40;59.06;102930.91;5035830;28;20218;-62
2022/01/22 08:40:56;;;;;;;6.30;3.33;;;10.20;80.80;;;13.42;59.26;102934.25;5035871;28;20195;-62
2022/01/22 08:43:25;;;;;;;7.80;4.63;;;10.20;81.10;;;13.45;59.08;102941.88;5035439;28;20252;-62
2022/01/22 08:45:53;;;;;;;6.73;3.87;;;10.20;81.20;;;13.46;59.21;102934.78;5036757;28;20186;-62
2022/01/22 08:48:23;;;;;;;7.30;4.50;;;10.20;81.10;;;13.46;59.17;102943.56;5035272;28;20206;-63
2022/01/22 08:50:50;;;;;;;4.57;3.40;;;10.20;81.10;;;13.47;59.16;102942.59;5051933;28;20198;-62
2022/01/22 08:53:38;;;;;;;3.97;3.30;;;10.20;81.10;;;13.47;59.18;102953.19;5021931;28;20578;-63
2022/01/22 08:56:07;;;;;;;4.47;3.13;;;10.30;81.10;;;13.50;59.40;102947.59;5036367;28;20269;-62
2022/01/22 08:58:35;;;;;;;4.57;2.37;;;10.30;81.20;;;13.54;59.24;102950.81;5036481;28;20272;-63
2022/01/22 09:01:03;;;;;;;4.23;2.43;;;10.30;81.30;;;13.56;59.29;102952.34;5036541;28;20205;-61
2022/01/22 09:03:32;;;;;;;2.60;2.40;;;10.30;81.20;;;13.57;59.00;102959.28;5036307;28;20585;-63
2022/01/22 09:06:00;;;;;;;3.67;2.40;;;10.30;81.20;;;13.57;59.34;102948.72;5036172;28;20187;-59
2022/01/22 09:08:28;;;;;;;3.57;2.60;;;10.40;81.20;;;13.59;59.30;102956.53;5036020;28;20604;-63
2022/01/22 09:10:55;;;;;;;2.20;1.77;;;10.40;81.30;;;13.61;59.41;102949.28;5047588;28;20198;-62
2022/01/22 09:13:25;;;;;;;3.17;2.40;;;10.40;81.30;;;13.63;59.63;102946.47;5055294;28;20634;-62
2022/01/22 09:15:55;;;;;;;2.17;1.97;;;10.40;81.30;;;13.69;59.63;102957.38;5056076;28;20278;-63
2022/01/22 09:18:23;;;;;;;3.07;2.03;;;10.40;81.50;;;13.75;59.33;102951.50;5038128;28;20308;-60
2022/01/22 09:23:19;;;;;;;2.47;1.50;;;10.50;81.60;;;13.81;58.91;102950.91;5035452;28;20228;-61
2022/01/22 09:25:49;;;;;;;1.70;1.60;;;10.50;81.30;;;13.80;59.21;102961.66;5035943;28;20194;-61
2022/01/22 09:28:16;;;;;;;1.73;1.57;;;10.50;81.20;;;13.76;59.16;102958.47;5034561;28;20194;-61
2022/01/22 09:30:44;;;;;;;1.57;1.47;;;10.50;81.20;;;13.74;59.32;102956.94;5044338;28;20243;-61
2022/01/22 09:33:12;;;;;;;2.17;1.70;;;10.50;81.20;;;13.75;59.31;102961.25;5055304;28;20583;-60
2022/01/22 09:35:39;;;;;;;2.40;1.97;;;10.50;81.20;;;13.75;59.40;102969.19;5055599;28;20200;-62
2022/01/22 09:38:08;;;;;;;3.53;2.53;;;10.50;81.20;;;13.78;59.37;102971.56;5055354;28;20224;-61
2022/01/22 09:40:36;;;;;;;2.07;1.87;;;10.50;81.20;;;13.78;59.24;102974.22;5054623;28;20266;-61
2022/01/22 09:43:04;;;;;;;2.83;1.90;;;10.50;81.90;;;13.78;59.33;102974.22;5052332;28;20358;-61
2022/01/22 09:45:32;;;;;;;2.53;2.33;;;10.50;81.20;;;13.79;59.45;102978.50;5034461;28;20346;-59
2022/01/22 09:48:04;;;;;;;3.07;2.73;;;10.50;81.20;;;13.78;59.30;102966.25;5035425;28;20293;-60
2022/01/22 09:50:34;;;;;;;4.00;3.20;;;10.60;81.30;;;13.82;59.32;102972.94;5041726;28;20218;-61
2022/01/22 09:53:03;;;;;;;2.63;2.43;;;10.60;81.40;;;13.86;59.37;102969.88;5053626;28;20695;-61
2022/01/22 09:55:33;;;;;;;3.37;2.77;;;10.60;81.30;;;13.91;59.42;102966.78;5054971;28;20214;-58
2022/01/22 09:58:00;;;;;;;5.43;4.53;;;10.60;81.30;;;13.96;58.82;102969.84;5053974;28;20626;-59
2022/01/22 10:00:28;;;;;;;6.70;3.97;;;10.70;81.40;;;13.99;59.24;102974.88;5053598;28;20205;-61
2022/01/22 10:02:58;;;;;;;3.40;2.67;;;10.70;81.20;;;14.00;59.00;102971.25;5054541;28;20194;-62
2022/01/22 10:05:29;;;;;;;3.80;2.80;;;10.70;81.00;;;14.00;59.19;102971.25;5055269;28;20256;-60
2022/01/22 10:08:31;;;;;;;2.47;2.17;;;10.80;81.10;;;13.92;59.21;102971.13;5054710;28;20217;-58
2022/01/22 10:11:02;;;;;;;3.40;2.10;;;10.70;81.00;;;13.94;59.16;102974.47;5043225;28;20659;-62
2022/01/22 10:13:44;;;;;;;2.93;2.37;;;10.70;81.00;;;13.91;59.20;102972.94;5034804;28;20214;-62
2022/01/22 10:16:22;;;;;;;3.10;2.00;;;10.70;81.00;;;13.91;59.38;102970.28;5034339;28;20248;-62
2022/01/22 10:19:14;;;;;;;2.40;2.20;;;10.80;81.10;;;13.91;59.34;102972.09;5034231;28;20268;-62
2022/01/22 10:21:45;;;;;;;2.87;2.50;;;10.80;81.10;;;14.00;59.27;102981.84;5051050;28;20189;-62
2022/01/22 10:24:41;;;;;;;2.83;2.53;;;10.80;81.10;;;14.04;59.32;102975.28;5054391;28;20206;-61
2022/01/22 10:29:57;;;;;;;2.47;1.70;;;10.90;80.80;;;14.18;58.67;102974.84;5052649;28;20363;-61
2022/01/22 10:35:17;;;;;;;2.80;1.50;;;10.90;80.40;;;14.25;58.67;102989.19;5034690;28;20278;-60
2022/01/22 10:38:05;;;;;;;1.83;1.57;;;10.90;79.90;;;14.29;58.26;102982.63;5034313;28;20668;-62
2022/01/22 10:40:36;;;;;;;1.10;0.70;;;11.00;79.80;;;14.32;58.20;102994.78;5043056;28;20266;-63
2022/01/22 10:43:42;;;;;;;1.20;1.03;;;11.00;79.60;;;14.33;58.22;102989.34;5053948;28;20214;-64
2022/01/22 10:47:03;;;;;;;0.70;0.67;;;11.10;79.50;;;14.31;58.01;102985.97;5053846;28;20194;-64
2022/01/22 10:48:57;;;;;;;0.77;0.77;;;11.10;79.20;;;14.29;57.92;102987.91;5046796;28;20213;-62
2022/01/22 10:51:26;;;;;;;2.17;0.90;;;11.10;79.20;;;14.27;58.10;102996.00;5038567;28;20194;-62
2022/01/22 10:53:58;;;;;;;1.57;0.97;;;11.10;79.00;;;14.26;58.25;102993.53;5033256;28;20544;-64
2022/01/22 10:56:27;;;;;;;2.50;1.10;;;11.10;79.20;;;14.26;58.09;102994.34;5033264;28;20210;-60
2022/01/22 10:58:59;;;;;;;2.30;1.63;;;11.10;79.20;;;14.28;57.94;102996.84;5032918;28;20293;-61
2022/01/22 11:01:30;;;;;;;1.97;1.50;;;11.10;79.20;;;14.30;58.02;103000.22;5051392;28;20220;-61
2022/01/22 11:04:10;;;;;;;3.00;1.20;;;11.10;79.20;;;14.29;58.14;103001.16;5036330;28;20213;-62
2022/01/22 11:06:45;;;;;;;1.07;0.97;;;11.10;79.10;;;14.35;58.16;103000.63;5054166;28;20190;-62
2022/01/22 11:09:13;;;;;;;2.40;1.23;;;11.10;79.10;;;14.40;58.12;102994.91;5053443;28;20206;-62
2022/01/22 11:11:41;;;;;;;1.63;1.27;;;11.20;79.30;;;14.41;58.01;102992.09;5033532;28;20205;-62
2022/01/22 11:14:12;;;;;;;2.70;1.77;;;11.20;79.10;;;14.40;57.78;103001.03;5032687;28;20269;-61
2022/01/22 11:16:43;;;;;;;2.50;1.70;;;11.20;78.90;;;14.38;57.60;103002.97;5034127;28;20213;-62
2022/01/22 11:19:19;;;;;;;3.60;1.60;;;11.20;78.90;;;14.36;57.52;103007.59;5016654;28;20632;-63
2022/01/22 11:21:49;;;;;;;2.97;1.77;;;11.20;78.70;;;14.33;57.70;103013.19;5052807;28;20277;-61
2022/01/22 11:24:20;;;;;;;2.10;1.83;;;11.20;78.40;;;14.36;57.81;103004.94;5052076;28;20284;-61
2022/01/22 11:26:52;;;;;;;2.03;1.43;;;11.20;78.60;;;14.40;57.34;103011.66;5052418;28;20618;-63
2022/01/22 11:29:27;;;;;;;2.70;1.43;;;11.20;78.30;;;14.39;57.36;103012.59;5051416;28;20221;-62
2022/01/22 11:31:58;;;;;;;3.30;1.83;;;11.20;78.00;;;14.42;57.11;103009.69;5052102;28;20193;-62
2022/01/22 11:34:32;;;;;;;3.10;1.53;;;11.20;78.00;;;14.46;56.86;103002.25;5053011;28;20221;-63
2022/01/22 11:37:09;;;;;;;1.60;1.50;;;11.20;77.80;;;14.56;57.00;103006.56;5052047;28;20204;-61
2022/01/22 11:39:36;;;;;;;2.37;1.60;;;11.20;78.00;;;14.73;56.83;103008.47;5033187;28;20220;-59
2022/01/22 11:42:04;;;;;;;2.57;2.00;;;11.30;77.90;;;14.87;56.26;103000.03;5033153;28;20197;-61
2022/01/22 11:44:47;;;;;;;5.20;2.90;;;11.40;77.30;;;14.92;55.94;102996.94;5032667;28;20215;-63
2022/01/22 11:47:17;;;;;;;2.40;1.60;;;11.50;76.70;;;14.95;55.46;103001.94;5033253;28;20187;-62
2022/01/22 11:50:10;;;;;;;3.60;1.70;;;11.60;76.10;;;14.96;55.33;103008.06;5033031;28;20278;-62
2022/01/22 11:52:41;;;;;;;1.63;1.43;;;11.60;75.60;;;15.04;55.42;103000.22;5032817;28;20230;-63
2022/01/22 11:55:11;;;;;;;1.80;1.60;;;11.70;75.80;;;15.07;54.92;103013.19;5033146;28;20194;-64
2022/01/22 11:57:41;;;;;;;2.33;1.70;;;11.70;75.30;;;15.04;54.93;103022.28;5035866;28;20186;-62
2022/01/22 12:00:24;;;;;;;3.17;1.80;;;11.70;74.90;;;14.95;54.86;103006.41;5052594;28;20497;-59
2022/01/22 12:03:20;;;;;;;6.50;2.63;;;11.70;74.70;;;14.82;54.63;103012.88;5052292;28;20197;-62
2022/01/22 12:06:08;;;;;;;7.97;5.80;;;11.70;74.80;;;14.78;54.78;103016.81;5051374;28;20198;-61
2022/01/22 12:09:06;;;;;;;4.00;2.73;;;11.70;74.70;;;14.76;55.17;103018.75;5052048;28;20190;-63
2022/01/22 12:14:54;;;;;;;2.70;1.40;;;11.60;74.90;;;14.81;54.71;103021.81;5051168;28;20531;-61